CFG2008 WAMM-WAAA
Flight info
| Callsign | CFG2008 |
|---|---|
| Flight time | 1h 25m |
| Altitude | 38000 |
| Route | LUANG W32 VENRU |
| Aircraft | A20N/M-SDE2E3FGHIRWXY/LB1 |
Departure
| Time | 2026-05-04 06:34 |
|---|---|
| Airport | Sam Ratulangi International Airport (WAMM) |
Arrival
| Time | 2026-05-04 08:00 |
|---|---|
| Airport | Sultan Hasanuddin International Airport (WAAA) |
| Time | Latitude | Longitude | Altitude | Speed | Heading |
|---|---|---|---|---|---|
| 2026-05-04 05:59 | 1.54398 | 124.92340 | 336 ft | 0 kts | 272° |
| 2026-05-04 06:25 | 1.54376 | 124.92422 | 331 ft | 3 kts | 20° |
| 2026-05-04 06:25 | 1.54373 | 124.92421 | 331 ft | 1 kts | 30° |
| 2026-05-04 06:28 | 1.54374 | 124.92421 | 336 ft | 1 kts | 30° |
| 2026-05-04 06:28 | 1.54400 | 124.92436 | 336 ft | 8 kts | 30° |
| 2026-05-04 06:28 | 1.54473 | 124.92452 | 336 ft | 13 kts | 2° |
| 2026-05-04 06:29 | 1.54571 | 124.92456 | 336 ft | 16 kts | 2° |
| 2026-05-04 06:29 | 1.54689 | 124.92459 | 336 ft | 18 kts | 0° |
| 2026-05-04 06:29 | 1.54795 | 124.92460 | 333 ft | 0 kts | 0° |
| 2026-05-04 06:29 | 1.54796 | 124.92460 | 336 ft | 0 kts | 0° |
| 2026-05-04 06:30 | 1.54801 | 124.92460 | 336 ft | 4 kts | 0° |
| 2026-05-04 06:30 | 1.54880 | 124.92464 | 333 ft | 17 kts | 3° |
| 2026-05-04 06:30 | 1.55013 | 124.92469 | 332 ft | 21 kts | 2° |
| 2026-05-04 06:31 | 1.55166 | 124.92474 | 334 ft | 23 kts | 1° |
| 2026-05-04 06:31 | 1.55332 | 124.92480 | 334 ft | 25 kts | 2° |
| 2026-05-04 06:31 | 1.55509 | 124.92486 | 336 ft | 26 kts | 1° |
| 2026-05-04 06:31 | 1.55695 | 124.92492 | 336 ft | 27 kts | 1° |
| 2026-05-04 06:32 | 1.55889 | 124.92498 | 335 ft | 29 kts | 2° |
| 2026-05-04 06:33 | 1.56054 | 124.92669 | 336 ft | 2 kts | 182° |
| 2026-05-04 06:34 | 1.55856 | 124.92661 | 337 ft | 63 kts | 182° |
| 2026-05-04 06:34 | 1.55197 | 124.92639 | 335 ft | 123 kts | 182° |
| 2026-05-04 06:34 | 1.54191 | 124.92607 | 467 ft | 156 kts | 180° |
| 2026-05-04 06:34 | 1.53091 | 124.92571 | 941 ft | 162 kts | 178° |
| 2026-05-04 06:35 | 1.51929 | 124.92531 | 1379 ft | 174 kts | 174° |
| 2026-05-04 06:36 | 1.48700 | 124.84260 | 4570 ft | 270 kts | 269° |
| 2026-05-04 06:37 | 1.48714 | 124.82360 | 5495 ft | 274 kts | 269° |
| 2026-05-04 06:37 | 1.48717 | 124.80446 | 6437 ft | 278 kts | 269° |
| 2026-05-04 06:37 | 1.48713 | 124.78511 | 7229 ft | 280 kts | 269° |
| 2026-05-04 06:37 | 1.48711 | 124.76547 | 8052 ft | 284 kts | 269° |
| 2026-05-04 06:38 | 1.48429 | 124.74600 | 8881 ft | 287 kts | 248° |
| 2026-05-04 06:38 | 1.47367 | 124.72957 | 9685 ft | 288 kts | 223° |
| 2026-05-04 06:40 | 1.34985 | 124.62347 | 13637 ft | 363 kts | 220° |
| 2026-05-04 06:40 | 1.33055 | 124.60693 | 14283 ft | 367 kts | 220° |
| 2026-05-04 06:40 | 1.31106 | 124.59019 | 14901 ft | 370 kts | 220° |
| 2026-05-04 06:40 | 1.29142 | 124.57330 | 15504 ft | 374 kts | 220° |
| 2026-05-04 06:41 | 1.27159 | 124.55623 | 16092 ft | 378 kts | 220° |
| 2026-05-04 06:41 | 1.25152 | 124.53898 | 16709 ft | 380 kts | 220° |
| 2026-05-04 06:41 | 1.23140 | 124.52172 | 17265 ft | 383 kts | 220° |
| 2026-05-04 06:41 | 1.21156 | 124.50436 | 17664 ft | 384 kts | 220° |
| 2026-05-04 06:42 | 1.19117 | 124.48674 | 18164 ft | 390 kts | 219° |
| 2026-05-04 06:42 | 1.17050 | 124.46908 | 18651 ft | 391 kts | 220° |
| 2026-05-04 06:42 | 1.14969 | 124.45137 | 19073 ft | 395 kts | 219° |
| 2026-05-04 06:44 | 0.97577 | 124.36284 | 22175 ft | 416 kts | 199° |
| 2026-05-04 06:44 | 0.94855 | 124.35275 | 22623 ft | 419 kts | 199° |
| 2026-05-04 06:44 | 0.92110 | 124.34258 | 23052 ft | 422 kts | 199° |
| 2026-05-04 06:45 | 0.89342 | 124.33235 | 23463 ft | 426 kts | 199° |
| 2026-05-04 06:45 | 0.86540 | 124.32198 | 23859 ft | 428 kts | 199° |
| 2026-05-04 06:45 | 0.83746 | 124.31166 | 24257 ft | 430 kts | 199° |
| 2026-05-04 06:45 | 0.80928 | 124.30124 | 24639 ft | 432 kts | 199° |
| 2026-05-04 06:46 | 0.78093 | 124.29075 | 25004 ft | 435 kts | 199° |
| 2026-05-04 06:46 | 0.75282 | 124.28034 | 25366 ft | 437 kts | 199° |
| 2026-05-04 06:46 | 0.72392 | 124.26963 | 25723 ft | 438 kts | 199° |
| 2026-05-04 06:46 | 0.69558 | 124.25913 | 26012 ft | 441 kts | 199° |
| 2026-05-04 06:48 | 0.49082 | 124.18357 | 28115 ft | 455 kts | 199° |
| 2026-05-04 06:48 | 0.46105 | 124.17258 | 28449 ft | 457 kts | 199° |
| 2026-05-04 06:49 | 0.43116 | 124.16154 | 28763 ft | 459 kts | 199° |
| 2026-05-04 06:50 | 0.24359 | 124.03928 | 30715 ft | 479 kts | 227° |
| 2026-05-04 06:51 | 0.22131 | 124.01442 | 30989 ft | 481 kts | 226° |
| 2026-05-04 06:51 | 0.19930 | 123.98990 | 31318 ft | 480 kts | 226° |
| 2026-05-04 06:51 | 0.17698 | 123.96507 | 31652 ft | 480 kts | 226° |
| 2026-05-04 06:51 | 0.15467 | 123.94030 | 31990 ft | 479 kts | 226° |
| 2026-05-04 06:52 | 0.13239 | 123.91556 | 32326 ft | 478 kts | 226° |
| 2026-05-04 06:52 | 0.11006 | 123.89075 | 32613 ft | 478 kts | 226° |
| 2026-05-04 06:52 | 0.08790 | 123.86612 | 32915 ft | 477 kts | 226° |
| 2026-05-04 06:52 | 0.06496 | 123.84223 | 33221 ft | 475 kts | 220° |
| 2026-05-04 06:53 | 0.04025 | 123.82032 | 33534 ft | 475 kts | 219° |
| 2026-05-04 06:53 | 0.01550 | 123.79850 | 33881 ft | 474 kts | 219° |
| 2026-05-04 06:53 | -0.00902 | 123.77690 | 34148 ft | 462 kts | 220° |
| 2026-05-04 06:53 | -0.03321 | 123.75554 | 34210 ft | 465 kts | 219° |
| 2026-05-04 06:54 | -0.08194 | 123.71224 | 34491 ft | 470 kts | 219° |
| 2026-05-04 06:54 | -0.10637 | 123.69060 | 34759 ft | 468 kts | 219° |
| 2026-05-04 06:54 | -0.13074 | 123.66896 | 34986 ft | 468 kts | 219° |
| 2026-05-04 06:55 | -0.15507 | 123.64742 | 35240 ft | 467 kts | 219° |
| 2026-05-04 06:55 | -0.17909 | 123.62619 | 35498 ft | 466 kts | 219° |
| 2026-05-04 06:55 | -0.20336 | 123.60479 | 35715 ft | 460 kts | 218° |
| 2026-05-04 06:55 | -0.22763 | 123.58360 | 35789 ft | 466 kts | 219° |
| 2026-05-04 06:56 | -0.25190 | 123.56217 | 36037 ft | 464 kts | 220° |
| 2026-05-04 06:57 | -0.41921 | 123.41395 | 37836 ft | 450 kts | 220° |
| 2026-05-04 06:58 | -0.46622 | 123.37218 | 37841 ft | 450 kts | 221° |
| 2026-05-04 06:58 | -0.51364 | 123.33043 | 37839 ft | 454 kts | 220° |
| 2026-05-04 06:59 | -0.56034 | 123.28897 | 37838 ft | 453 kts | 220° |
| 2026-05-04 06:59 | -0.60760 | 123.24713 | 37842 ft | 452 kts | 220° |
| 2026-05-04 07:01 | -0.79747 | 123.07904 | 37844 ft | 458 kts | 220° |
| 2026-05-04 07:02 | -0.84532 | 123.03639 | 37859 ft | 457 kts | 220° |
| 2026-05-04 07:02 | -0.89247 | 122.99456 | 37856 ft | 455 kts | 221° |
| 2026-05-04 07:03 | -0.94077 | 122.95307 | 37850 ft | 461 kts | 219° |
| 2026-05-04 07:03 | -0.98969 | 122.91183 | 37838 ft | 443 kts | 220° |
| 2026-05-04 07:04 | -1.03575 | 122.87176 | 37851 ft | 440 kts | 220° |
| 2026-05-04 07:04 | -1.08202 | 122.83156 | 37865 ft | 446 kts | 220° |
| 2026-05-04 07:05 | -1.10511 | 122.81144 | 37874 ft | 434 kts | 218° |
| 2026-05-04 07:05 | -1.12804 | 122.79170 | 37866 ft | 438 kts | 220° |
| 2026-05-04 07:05 | -1.17463 | 122.75147 | 37864 ft | 446 kts | 220° |
| 2026-05-04 07:06 | -1.24569 | 122.69010 | 37874 ft | 449 kts | 220° |
| 2026-05-04 07:07 | -1.29295 | 122.64934 | 37859 ft | 449 kts | 220° |
| 2026-05-04 07:09 | -1.47580 | 122.49158 | 37854 ft | 454 kts | 220° |
| 2026-05-04 07:09 | -1.52352 | 122.45026 | 37855 ft | 455 kts | 220° |
| 2026-05-04 07:10 | -1.57143 | 122.40884 | 37853 ft | 460 kts | 221° |
| 2026-05-04 07:12 | -1.75953 | 122.24623 | 37852 ft | 449 kts | 220° |
| 2026-05-04 07:12 | -1.80709 | 122.20581 | 37861 ft | 450 kts | 218° |
| 2026-05-04 07:13 | -1.85474 | 122.16461 | 37830 ft | 452 kts | 221° |
| 2026-05-04 07:13 | -1.90280 | 122.12308 | 37841 ft | 462 kts | 219° |
| 2026-05-04 07:14 | -1.99913 | 122.03888 | 37846 ft | 448 kts | 220° |
| 2026-05-04 07:14 | -2.02266 | 122.01877 | 37844 ft | 441 kts | 217° |
| 2026-05-04 07:15 | -2.06995 | 121.97758 | 37853 ft | 458 kts | 220° |
| 2026-05-04 07:15 | -2.11809 | 121.93611 | 37847 ft | 462 kts | 219° |
| 2026-05-04 07:16 | -2.14212 | 121.91540 | 37854 ft | 450 kts | 220° |
| 2026-05-04 07:16 | -2.16584 | 121.89492 | 37850 ft | 445 kts | 219° |
| 2026-05-04 07:16 | -2.21198 | 121.85548 | 37845 ft | 434 kts | 221° |
| 2026-05-04 07:17 | -2.23515 | 121.83534 | 37851 ft | 449 kts | 219° |
| 2026-05-04 07:17 | -2.25871 | 121.81492 | 37885 ft | 454 kts | 223° |
| 2026-05-04 07:17 | -2.28156 | 121.79454 | 37819 ft | 425 kts | 219° |
| 2026-05-04 07:17 | -2.30392 | 121.77514 | 37863 ft | 427 kts | 219° |
| 2026-05-04 07:18 | -2.34967 | 121.73641 | 37868 ft | 435 kts | 219° |
| 2026-05-04 07:18 | -2.39604 | 121.69643 | 37868 ft | 445 kts | 220° |
| 2026-05-04 07:19 | -2.44278 | 121.65673 | 37862 ft | 445 kts | 217° |
| 2026-05-04 07:19 | -2.49113 | 121.61709 | 37877 ft | 455 kts | 218° |
| 2026-05-04 07:20 | -2.54050 | 121.57687 | 37873 ft | 458 kts | 218° |
| 2026-05-04 07:20 | -2.58989 | 121.53653 | 37854 ft | 457 kts | 217° |
| 2026-05-04 07:22 | -2.78506 | 121.37640 | 37860 ft | 455 kts | 218° |
| 2026-05-04 07:23 | -2.83382 | 121.33641 | 37858 ft | 454 kts | 218° |
| 2026-05-04 07:23 | -2.88278 | 121.29617 | 37870 ft | 455 kts | 218° |
| 2026-05-04 07:24 | -2.93167 | 121.25605 | 37870 ft | 455 kts | 218° |
| 2026-05-04 07:24 | -2.98061 | 121.21590 | 37855 ft | 455 kts | 218° |
| 2026-05-04 07:26 | -3.20353 | 121.11984 | 37856 ft | 449 kts | 178° |
| 2026-05-04 07:27 | -3.26572 | 121.12095 | 37877 ft | 450 kts | 179° |
| 2026-05-04 07:27 | -3.32802 | 121.12202 | 37879 ft | 447 kts | 179° |
| 2026-05-04 07:28 | -3.39035 | 121.12297 | 37882 ft | 448 kts | 179° |
| 2026-05-04 07:28 | -3.45265 | 121.12402 | 37886 ft | 447 kts | 179° |
| 2026-05-04 07:29 | -3.51494 | 121.12512 | 37887 ft | 448 kts | 179° |
| 2026-05-04 07:29 | -3.57731 | 121.12620 | 37897 ft | 449 kts | 179° |
| 2026-05-04 07:30 | -3.63988 | 121.12727 | 37885 ft | 448 kts | 179° |
| 2026-05-04 07:30 | -3.70230 | 121.12834 | 37879 ft | 447 kts | 179° |
| 2026-05-04 07:31 | -3.76466 | 121.12934 | 37875 ft | 449 kts | 179° |
| 2026-05-04 07:33 | -4.01462 | 121.13352 | 37851 ft | 450 kts | 179° |
| 2026-05-04 07:33 | -4.07692 | 121.13464 | 37839 ft | 452 kts | 179° |
| 2026-05-04 07:34 | -4.13973 | 121.13565 | 37837 ft | 451 kts | 179° |
| 2026-05-04 07:34 | -4.20258 | 121.13667 | 37838 ft | 451 kts | 180° |
| 2026-05-04 07:35 | -4.26539 | 121.13773 | 37841 ft | 451 kts | 179° |
| 2026-05-04 07:35 | -4.32795 | 121.13603 | 37826 ft | 449 kts | 190° |
| 2026-05-04 07:36 | -4.38653 | 121.11596 | 37544 ft | 445 kts | 210° |
| 2026-05-04 07:38 | -4.53606 | 120.95526 | 33641 ft | 460 kts | 229° |
| 2026-05-04 07:38 | -4.55659 | 120.93063 | 33022 ft | 460 kts | 229° |
| 2026-05-04 07:38 | -4.57714 | 120.90601 | 32418 ft | 461 kts | 229° |
| 2026-05-04 07:38 | -4.59779 | 120.88125 | 31817 ft | 465 kts | 229° |
| 2026-05-04 07:39 | -4.61836 | 120.85655 | 31249 ft | 469 kts | 230° |
| 2026-05-04 07:39 | -4.63757 | 120.83001 | 30676 ft | 472 kts | 237° |
| 2026-05-04 07:39 | -4.65369 | 120.80127 | 30102 ft | 474 kts | 243° |
| 2026-05-04 07:39 | -4.66645 | 120.77081 | 29474 ft | 474 kts | 249° |
| 2026-05-04 07:40 | -4.67777 | 120.73994 | 28820 ft | 469 kts | 249° |
| 2026-05-04 07:40 | -4.68911 | 120.70942 | 28193 ft | 465 kts | 249° |
| 2026-05-04 07:40 | -4.70039 | 120.67918 | 27585 ft | 459 kts | 249° |
| 2026-05-04 07:40 | -4.71153 | 120.64932 | 27001 ft | 454 kts | 249° |
| 2026-05-04 07:41 | -4.72255 | 120.61975 | 26420 ft | 453 kts | 249° |
| 2026-05-04 07:41 | -4.73353 | 120.59034 | 25863 ft | 448 kts | 249° |
| 2026-05-04 07:41 | -4.74442 | 120.56116 | 25318 ft | 444 kts | 249° |
| 2026-05-04 07:41 | -4.75518 | 120.53233 | 24784 ft | 439 kts | 249° |
| 2026-05-04 07:42 | -4.76588 | 120.50370 | 24279 ft | 436 kts | 249° |
| 2026-05-04 07:42 | -4.77649 | 120.47530 | 23779 ft | 434 kts | 249° |
| 2026-05-04 07:42 | -4.78706 | 120.44703 | 23253 ft | 431 kts | 249° |
| 2026-05-04 07:42 | -4.79747 | 120.41900 | 22680 ft | 427 kts | 249° |
| 2026-05-04 07:43 | -4.80767 | 120.39158 | 22120 ft | 422 kts | 249° |
| 2026-05-04 07:43 | -4.81786 | 120.36413 | 21570 ft | 418 kts | 249° |
| 2026-05-04 07:43 | -4.82797 | 120.33690 | 21035 ft | 414 kts | 249° |
| 2026-05-04 07:43 | -4.83799 | 120.30990 | 20515 ft | 412 kts | 249° |
| 2026-05-04 07:44 | -4.84793 | 120.28306 | 20010 ft | 409 kts | 249° |
| 2026-05-04 07:44 | -4.85782 | 120.25650 | 19510 ft | 404 kts | 249° |
| 2026-05-04 07:44 | -4.86761 | 120.23023 | 19033 ft | 400 kts | 249° |
| 2026-05-04 07:44 | -4.87730 | 120.20422 | 18566 ft | 396 kts | 249° |
| 2026-05-04 07:45 | -4.88689 | 120.17847 | 18104 ft | 392 kts | 249° |
| 2026-05-04 07:45 | -4.89639 | 120.15291 | 17580 ft | 391 kts | 249° |
| 2026-05-04 07:45 | -4.90585 | 120.12742 | 17067 ft | 388 kts | 249° |
| 2026-05-04 07:45 | -4.91523 | 120.10222 | 16571 ft | 384 kts | 249° |
| 2026-05-04 07:46 | -4.92447 | 120.07726 | 16081 ft | 380 kts | 249° |
| 2026-05-04 07:46 | -4.93371 | 120.05246 | 15611 ft | 379 kts | 249° |
| 2026-05-04 07:46 | -4.94293 | 120.02774 | 15134 ft | 379 kts | 249° |
| 2026-05-04 07:46 | -4.94867 | 120.00216 | 14672 ft | 375 kts | 266° |
| 2026-05-04 07:47 | -4.94600 | 119.97650 | 14222 ft | 370 kts | 286° |
| 2026-05-04 07:47 | -4.93513 | 119.95337 | 13785 ft | 367 kts | 306° |
| 2026-05-04 07:47 | -4.91720 | 119.93509 | 13294 ft | 368 kts | 322° |
| 2026-05-04 07:49 | -4.78391 | 119.83702 | 11143 ft | 315 kts | 322° |
| 2026-05-04 07:49 | -4.76680 | 119.82382 | 10742 ft | 305 kts | 322° |
| 2026-05-04 07:49 | -4.75012 | 119.81094 | 10388 ft | 299 kts | 323° |
| 2026-05-04 07:50 | -4.73365 | 119.79824 | 10019 ft | 299 kts | 323° |
| 2026-05-04 07:50 | -4.71719 | 119.78546 | 9657 ft | 299 kts | 323° |
| 2026-05-04 07:50 | -4.70077 | 119.77277 | 9252 ft | 298 kts | 323° |
| 2026-05-04 07:50 | -4.68435 | 119.76006 | 8861 ft | 296 kts | 322° |
| 2026-05-04 07:51 | -4.66949 | 119.74601 | 8458 ft | 294 kts | 305° |
| 2026-05-04 07:51 | -4.66158 | 119.72748 | 8094 ft | 288 kts | 279° |
| 2026-05-04 07:51 | -4.66251 | 119.70759 | 7718 ft | 289 kts | 252° |
| 2026-05-04 07:51 | -4.67169 | 119.68991 | 7355 ft | 287 kts | 231° |
| 2026-05-04 07:52 | -4.68465 | 119.67509 | 7010 ft | 286 kts | 225° |
| 2026-05-04 07:52 | -4.69842 | 119.66049 | 6657 ft | 290 kts | 226° |
| 2026-05-04 07:52 | -4.71180 | 119.64546 | 6308 ft | 288 kts | 223° |
| 2026-05-04 07:52 | -4.72838 | 119.63483 | 5934 ft | 280 kts | 196° |
| 2026-05-04 07:53 | -4.74115 | 119.63255 | 5690 ft | 275 kts | 177° |
| 2026-05-04 07:54 | -4.86324 | 119.64979 | 3269 ft | 227 kts | 171° |
| 2026-05-04 07:55 | -4.87896 | 119.65162 | 3219 ft | 223 kts | 172° |
| 2026-05-04 07:55 | -4.89436 | 119.65245 | 3246 ft | 226 kts | 185° |
| 2026-05-04 07:55 | -4.90883 | 119.64840 | 3236 ft | 213 kts | 202° |
| 2026-05-04 07:55 | -4.92117 | 119.64286 | 3140 ft | 187 kts | 205° |
| 2026-05-04 07:56 | -4.93342 | 119.63656 | 2973 ft | 209 kts | 207° |
| 2026-05-04 07:56 | -4.94547 | 119.62892 | 2729 ft | 185 kts | 205° |
| 2026-05-04 07:56 | -4.95688 | 119.62199 | 2475 ft | 195 kts | 216° |
| 2026-05-04 07:56 | -4.96928 | 119.61496 | 2204 ft | 197 kts | 206° |
| 2026-05-04 07:57 | -4.98093 | 119.60824 | 1927 ft | 193 kts | 205° |
| 2026-05-04 07:57 | -4.99295 | 119.60164 | 1647 ft | 185 kts | 213° |
| 2026-05-04 07:57 | -5.00324 | 119.59539 | 1464 ft | 164 kts | 211° |
| 2026-05-04 07:57 | -5.01319 | 119.58964 | 1281 ft | 161 kts | 211° |
| 2026-05-04 07:58 | -5.02299 | 119.58425 | 1070 ft | 160 kts | 215° |
| 2026-05-04 07:58 | -5.03245 | 119.57864 | 881 ft | 151 kts | 211° |
| 2026-05-04 07:58 | -5.04109 | 119.57371 | 682 ft | 124 kts | 212° |
| 2026-05-04 07:58 | -5.04863 | 119.56928 | 582 ft | 132 kts | 214° |
| 2026-05-04 07:59 | -5.05733 | 119.56409 | 379 ft | 143 kts | 210° |
| 2026-05-04 07:59 | -5.06578 | 119.55948 | 174 ft | 139 kts | 214° |
| 2026-05-04 07:59 | -5.07396 | 119.55464 | 43 ft | 129 kts | 214° |
| 2026-05-04 07:59 | -5.08032 | 119.55090 | 40 ft | 79 kts | 210° |
| 2026-05-04 08:00 | -5.08413 | 119.54878 | 40 ft | 34 kts | 214° |
| 2026-05-04 08:00 | -5.08555 | 119.54726 | 40 ft | 26 kts | 239° |
| 2026-05-04 08:00 | -5.08598 | 119.54648 | 41 ft | 0 kts | 242° |
| 2026-05-04 08:02 | -5.08201 | 119.54794 | 40 ft | 19 kts | 30° |
| 2026-05-04 08:02 | -5.08107 | 119.54845 | 40 ft | 8 kts | 16° |
| 2026-05-04 08:02 | -5.08049 | 119.54818 | 39 ft | 11 kts | 299° |
| 2026-05-04 08:03 | -5.08021 | 119.54766 | 41 ft | 8 kts | 298° |
| 2026-05-04 08:03 | -5.08000 | 119.54736 | 41 ft | 1 kts | 317° |
| 2026-05-04 08:03 | -5.07995 | 119.54731 | 41 ft | 2 kts | 317° |
| 2026-05-04 08:03 | -5.07970 | 119.54724 | 41 ft | 6 kts | 16° |
| 2026-05-04 08:04 | -5.07927 | 119.54716 | 39 ft | 7 kts | 302° |
| 2026-05-04 08:04 | -5.07904 | 119.54677 | 41 ft | 0 kts | 299° |